sensor_id;sensor_type;location;lat;lon;timestamp;pressure;altitude;pressure_sealevel;temperature;humidity
9141;BME280;46330;50.822;7.126;2023-07-31T00:01:28;100620.13;;;17.31;98.25
9141;BME280;46330;50.822;7.126;2023-07-31T00:03:56;100621.72;;;17.35;98.20
9141;BME280;46330;50.822;7.126;2023-07-31T00:06:24;100623.44;;;17.36;98.07
9141;BME280;46330;50.822;7.126;2023-07-31T00:08:52;100619.88;;;17.37;98.02
9141;BME280;46330;50.822;7.126;2023-07-31T00:11:19;100607.44;;;17.39;98.10
9141;BME280;46330;50.822;7.126;2023-07-31T00:13:47;100603.78;;;17.42;98.53
9141;BME280;46330;50.822;7.126;2023-07-31T00:16:16;100606.38;;;17.43;98.55
9141;BME280;46330;50.822;7.126;2023-07-31T00:18:44;100608.16;;;17.43;99.06
9141;BME280;46330;50.822;7.126;2023-07-31T00:21:12;100614.59;;;17.37;98.99
9141;BME280;46330;50.822;7.126;2023-07-31T00:23:40;100613.63;;;17.38;99.31
9141;BME280;46330;50.822;7.126;2023-07-31T00:26:08;100609.50;;;17.33;99.99
9141;BME280;46330;50.822;7.126;2023-07-31T00:28:36;100615.50;;;17.36;99.92
9141;BME280;46330;50.822;7.126;2023-07-31T00:31:04;100609.41;;;17.34;98.49
9141;BME280;46330;50.822;7.126;2023-07-31T00:33:35;100610.06;;;17.39;98.20
9141;BME280;46330;50.822;7.126;2023-07-31T00:36:03;100613.72;;;17.37;98.51
9141;BME280;46330;50.822;7.126;2023-07-31T00:38:30;100612.78;;;17.38;96.27
9141;BME280;46330;50.822;7.126;2023-07-31T00:40:58;100603.72;;;17.43;95.99
9141;BME280;46330;50.822;7.126;2023-07-31T00:43:26;100614.00;;;17.49;96.30
9141;BME280;46330;50.822;7.126;2023-07-31T00:45:54;100612.13;;;17.51;95.87
9141;BME280;46330;50.822;7.126;2023-07-31T00:48:23;100613.84;;;17.52;96.72
9141;BME280;46330;50.822;7.126;2023-07-31T00:50:52;100611.41;;;17.48;95.74
9141;BME280;46330;50.822;7.126;2023-07-31T00:53:20;100606.75;;;17.53;93.94
9141;BME280;46330;50.822;7.126;2023-07-31T00:55:49;100601.28;;;17.57;95.31
9141;BME280;46330;50.822;7.126;2023-07-31T00:58:17;100599.56;;;17.56;94.18
9141;BME280;46330;50.822;7.126;2023-07-31T01:00:45;100603.00;;;17.58;93.57
9141;BME280;46330;50.822;7.126;2023-07-31T01:03:13;100602.06;;;17.59;92.65
9141;BME280;46330;50.822;7.126;2023-07-31T01:05:49;100603.06;;;17.57;92.48
9141;BME280;46330;50.822;7.126;2023-07-31T01:08:28;100602.84;;;17.61;92.83
9141;BME280;46330;50.822;7.126;2023-07-31T01:11:04;100600.28;;;17.60;92.49
9141;BME280;46330;50.822;7.126;2023-07-31T01:13:35;100601.22;;;17.59;92.96
9141;BME280;46330;50.822;7.126;2023-07-31T01:16:04;100595.06;;;17.58;92.87
9141;BME280;46330;50.822;7.126;2023-07-31T01:18:32;100585.25;;;17.60;92.66
9141;BME280;46330;50.822;7.126;2023-07-31T01:21:13;100579.19;;;17.58;92.95
9141;BME280;46330;50.822;7.126;2023-07-31T01:24:00;100588.00;;;17.59;92.41
9141;BME280;46330;50.822;7.126;2023-07-31T01:26:36;100586.03;;;17.62;92.73
9141;BME280;46330;50.822;7.126;2023-07-31T01:29:10;100579.81;;;17.63;92.64
9141;BME280;46330;50.822;7.126;2023-07-31T01:31:41;100583.31;;;17.64;92.18
9141;BME280;46330;50.822;7.126;2023-07-31T01:34:11;100591.31;;;17.62;92.46
9141;BME280;46330;50.822;7.126;2023-07-31T01:36:40;100586.28;;;17.58;93.32
9141;BME280;46330;50.822;7.126;2023-07-31T01:39:08;100590.72;;;17.57;94.00
9141;BME280;46330;50.822;7.126;2023-07-31T01:41:37;100584.56;;;17.57;95.23
9141;BME280;46330;50.822;7.126;2023-07-31T01:44:06;100596.16;;;17.53;95.31
9141;BME280;46330;50.822;7.126;2023-07-31T01:46:34;100585.50;;;17.56;95.36
9141;BME280;46330;50.822;7.126;2023-07-31T01:49:02;100578.66;;;17.50;95.84
9141;BME280;46330;50.822;7.126;2023-07-31T01:51:32;100587.75;;;17.45;95.41
9141;BME280;46330;50.822;7.126;2023-07-31T01:54:00;100587.69;;;17.46;95.57
9141;BME280;46330;50.822;7.126;2023-07-31T01:56:28;100579.91;;;17.43;96.08
9141;BME280;46330;50.822;7.126;2023-07-31T01:58:58;100575.41;;;17.45;96.35
9141;BME280;46330;50.822;7.126;2023-07-31T02:01:26;100578.03;;;17.45;96.44
9141;BME280;46330;50.822;7.126;2023-07-31T02:03:54;100576.41;;;17.43;97.37
9141;BME280;46330;50.822;7.126;2023-07-31T02:06:22;100565.19;;;17.38;97.90
9141;BME280;46330;50.822;7.126;2023-07-31T02:08:50;100572.91;;;17.42;98.10
9141;BME280;46330;50.822;7.126;2023-07-31T02:11:17;100564.63;;;17.31;98.64
9141;BME280;46330;50.822;7.126;2023-07-31T02:13:45;100558.19;;;17.37;98.64
9141;BME280;46330;50.822;7.126;2023-07-31T02:16:14;100567.09;;;17.34;98.78
9141;BME280;46330;50.822;7.126;2023-07-31T02:18:43;100564.47;;;17.34;98.71
9141;BME280;46330;50.822;7.126;2023-07-31T02:21:12;100557.34;;;17.36;98.99
9141;BME280;46330;50.822;7.126;2023-07-31T02:23:39;100554.69;;;17.36;98.71
9141;BME280;46330;50.822;7.126;2023-07-31T02:26:07;100554.44;;;17.41;98.89
9141;BME280;46330;50.822;7.126;2023-07-31T02:28:35;100551.91;;;17.39;98.57
9141;BME280;46330;50.822;7.126;2023-07-31T02:31:03;100550.28;;;17.37;98.63
9141;BME280;46330;50.822;7.126;2023-07-31T02:33:35;100543.97;;;17.39;98.58
9141;BME280;46330;50.822;7.126;2023-07-31T02:36:03;100539.53;;;17.40;98.13
9141;BME280;46330;50.822;7.126;2023-07-31T02:38:31;100544.88;;;17.38;98.24
9141;BME280;46330;50.822;7.126;2023-07-31T02:40:58;100537.66;;;17.42;99.05
9141;BME280;46330;50.822;7.126;2023-07-31T02:43:26;100540.75;;;17.33;97.87
9141;BME280;46330;50.822;7.126;2023-07-31T02:45:54;100533.44;;;17.38;97.63
9141;BME280;46330;50.822;7.126;2023-07-31T02:48:23;100529.81;;;17.40;97.91
9141;BME280;46330;50.822;7.126;2023-07-31T02:50:53;100524.38;;;17.43;96.81
9141;BME280;46330;50.822;7.126;2023-07-31T02:53:21;100531.66;;;17.38;96.88
9141;BME280;46330;50.822;7.126;2023-07-31T02:55:49;100528.25;;;17.36;95.97
9141;BME280;46330;50.822;7.126;2023-07-31T02:58:17;100531.50;;;17.41;95.82
9141;BME280;46330;50.822;7.126;2023-07-31T03:00:45;100532.63;;;17.37;95.34
9141;BME280;46330;50.822;7.126;2023-07-31T03:03:13;100529.72;;;17.42;95.60
9141;BME280;46330;50.822;7.126;2023-07-31T03:05:41;100525.31;;;17.42;95.09
9141;BME280;46330;50.822;7.126;2023-07-31T03:08:10;100526.78;;;17.48;95.40
9141;BME280;46330;50.822;7.126;2023-07-31T03:10:38;100512.94;;;17.43;94.59
9141;BME280;46330;50.822;7.126;2023-07-31T03:13:06;100520.00;;;17.42;94.17
9141;BME280;46330;50.822;7.126;2023-07-31T03:15:33;100519.00;;;17.45;94.08
9141;BME280;46330;50.822;7.126;2023-07-31T03:18:01;100513.66;;;17.46;93.57
9141;BME280;46330;50.822;7.126;2023-07-31T03:20:30;100504.75;;;17.47;93.56
9141;BME280;46330;50.822;7.126;2023-07-31T03:22:57;100509.19;;;17.47;93.17
9141;BME280;46330;50.822;7.126;2023-07-31T03:25:27;100508.97;;;17.51;93.56
9141;BME280;46330;50.822;7.126;2023-07-31T03:27:54;100510.00;;;17.49;93.39
9141;BME280;46330;50.822;7.126;2023-07-31T03:30:22;100501.91;;;17.52;93.06
9141;BME280;46330;50.822;7.126;2023-07-31T03:32:51;100505.47;;;17.51;93.11
9141;BME280;46330;50.822;7.126;2023-07-31T03:35:19;100495.66;;;17.53;93.16
9141;BME280;46330;50.822;7.126;2023-07-31T03:37:47;100493.84;;;17.55;92.93
9141;BME280;46330;50.822;7.126;2023-07-31T03:40:15;100491.97;;;17.57;92.50
9141;BME280;46330;50.822;7.126;2023-07-31T03:42:44;100489.34;;;17.57;92.40
9141;BME280;46330;50.822;7.126;2023-07-31T03:45:12;100490.28;;;17.56;92.31
9141;BME280;46330;50.822;7.126;2023-07-31T03:47:40;100481.41;;;17.57;91.51
9141;BME280;46330;50.822;7.126;2023-07-31T03:50:08;100480.38;;;17.59;90.53
9141;BME280;46330;50.822;7.126;2023-07-31T03:52:36;100475.94;;;17.60;91.54
9141;BME280;46330;50.822;7.126;2023-07-31T03:55:05;100480.31;;;17.61;90.75
9141;BME280;46330;50.822;7.126;2023-07-31T03:57:32;100478.44;;;17.63;90.99
9141;BME280;46330;50.822;7.126;2023-07-31T04:00:02;100479.41;;;17.62;90.41
9141;BME280;46330;50.822;7.126;2023-07-31T04:02:37;100476.81;;;17.60;89.97
9141;BME280;46330;50.822;7.126;2023-07-31T04:05:05;100465.91;;;17.66;90.42
9141;BME280;46330;50.822;7.126;2023-07-31T04:07:34;100460.72;;;17.65;90.07
9141;BME280;46330;50.822;7.126;2023-07-31T04:10:03;100472.13;;;17.65;89.90
9141;BME280;46330;50.822;7.126;2023-07-31T04:12:31;100467.78;;;17.64;89.61
9141;BME280;46330;50.822;7.126;2023-07-31T04:14:59;100468.56;;;17.66;89.40
9141;BME280;46330;50.822;7.126;2023-07-31T04:17:28;100467.53;;;17.69;89.40
9141;BME280;46330;50.822;7.126;2023-07-31T04:19:56;100469.25;;;17.70;89.88
9141;BME280;46330;50.822;7.126;2023-07-31T04:22:24;100469.09;;;17.73;89.79
9141;BME280;46330;50.822;7.126;2023-07-31T04:24:52;100467.31;;;17.73;90.38
9141;BME280;46330;50.822;7.126;2023-07-31T04:27:19;100463.66;;;17.76;89.98
9141;BME280;46330;50.822;7.126;2023-07-31T04:29:47;100465.44;;;17.76;90.44
9141;BME280;46330;50.822;7.126;2023-07-31T04:32:15;100474.09;;;17.79;90.70
9141;BME280;46330;50.822;7.126;2023-07-31T04:34:44;100469.66;;;17.80;90.94
9141;BME280;46330;50.822;7.126;2023-07-31T04:37:12;100467.00;;;17.80;90.35
9141;BME280;46330;50.822;7.126;2023-07-31T04:39:40;100473.00;;;17.83;90.10
9141;BME280;46330;50.822;7.126;2023-07-31T04:42:08;100471.28;;;17.82;91.14
9141;BME280;46330;50.822;7.126;2023-07-31T04:44:36;100462.47;;;17.82;90.61
9141;BME280;46330;50.822;7.126;2023-07-31T04:47:03;100462.47;;;17.82;90.64
9141;BME280;46330;50.822;7.126;2023-07-31T04:49:31;100470.34;;;17.83;89.57
9141;BME280;46330;50.822;7.126;2023-07-31T04:52:01;100470.09;;;17.88;89.50
9141;BME280;46330;50.822;7.126;2023-07-31T04:54:28;100465.34;;;17.94;90.05
9141;BME280;46330;50.822;7.126;2023-07-31T04:56:56;100464.56;;;17.92;89.71
9141;BME280;46330;50.822;7.126;2023-07-31T04:59:24;100464.47;;;17.94;89.81
9141;BME280;46330;50.822;7.126;2023-07-31T05:01:52;100454.59;;;17.97;89.86
9141;BME280;46330;50.822;7.126;2023-07-31T05:04:20;100450.84;;;18.01;89.66
9141;BME280;46330;50.822;7.126;2023-07-31T05:06:48;100451.03;;;17.98;88.98
9141;BME280;46330;50.822;7.126;2023-07-31T05:09:17;100451.63;;;18.03;89.45
9141;BME280;46330;50.822;7.126;2023-07-31T05:11:45;100453.03;;;18.10;89.31
9141;BME280;46330;50.822;7.126;2023-07-31T05:14:13;100442.38;;;18.12;88.77
9141;BME280;46330;50.822;7.126;2023-07-31T05:16:42;100439.03;;;18.08;88.16
9141;BME280;46330;50.822;7.126;2023-07-31T05:19:10;100432.00;;;18.07;88.12
9141;BME280;46330;50.822;7.126;2023-07-31T05:21:38;100434.59;;;18.09;88.18
9141;BME280;46330;50.822;7.126;2023-07-31T05:24:06;100432.53;;;18.14;88.42
9141;BME280;46330;50.822;7.126;2023-07-31T05:26:46;100436.09;;;18.13;88.26
9141;BME280;46330;50.822;7.126;2023-07-31T05:29:14;100430.47;;;18.19;88.12
9141;BME280;46330;50.822;7.126;2023-07-31T05:31:43;100430.47;;;18.19;88.11
9141;BME280;46330;50.822;7.126;2023-07-31T05:34:11;100426.22;;;18.16;87.96
9141;BME280;46330;50.822;7.126;2023-07-31T05:36:38;100430.09;;;18.26;87.83
9141;BME280;46330;50.822;7.126;2023-07-31T05:39:07;100428.13;;;18.30;88.10
9141;BME280;46330;50.822;7.126;2023-07-31T05:41:35;100422.72;;;18.32;88.43
9141;BME280;46330;50.822;7.126;2023-07-31T05:44:04;100418.41;;;18.31;87.90
9141;BME280;46330;50.822;7.126;2023-07-31T05:46:33;100412.06;;;18.33;86.14
9141;BME280;46330;50.822;7.126;2023-07-31T05:49:01;100402.66;;;18.43;86.90
9141;BME280;46330;50.822;7.126;2023-07-31T05:51:29;100400.19;;;18.40;86.66
9141;BME280;46330;50.822;7.126;2023-07-31T05:53:57;100400.97;;;18.42;86.74
9141;BME280;46330;50.822;7.126;2023-07-31T05:56:24;100392.22;;;18.40;85.47
9141;BME280;46330;50.822;7.126;2023-07-31T05:58:54;100393.72;;;18.46;85.64
9141;BME280;46330;50.822;7.126;2023-07-31T06:01:25;100388.88;;;18.54;86.35
9141;BME280;46330;50.822;7.126;2023-07-31T06:03:53;100390.31;;;18.59;85.73
9141;BME280;46330;50.822;7.126;2023-07-31T06:06:21;100380.84;;;18.55;85.37
9141;BME280;46330;50.822;7.126;2023-07-31T06:08:49;100395.03;;;18.54;85.08
9141;BME280;46330;50.822;7.126;2023-07-31T06:11:17;100384.50;;;18.53;85.13
9141;BME280;46330;50.822;7.126;2023-07-31T06:13:45;100386.38;;;18.51;85.91
9141;BME280;46330;50.822;7.126;2023-07-31T06:16:14;100390.75;;;18.52;86.52
9141;BME280;46330;50.822;7.126;2023-07-31T06:18:44;100389.72;;;18.54;86.35
9141;BME280;46330;50.822;7.126;2023-07-31T06:21:13;100398.53;;;18.55;85.89
9141;BME280;46330;50.822;7.126;2023-07-31T06:23:40;100387.47;;;18.47;87.43
9141;BME280;46330;50.822;7.126;2023-07-31T06:26:08;100398.84;;;18.49;87.25
9141;BME280;46330;50.822;7.126;2023-07-31T06:28:36;100387.22;;;18.36;88.67
9141;BME280;46330;50.822;7.126;2023-07-31T06:31:04;100395.66;;;18.26;89.26
9141;BME280;46330;50.822;7.126;2023-07-31T06:33:32;100397.44;;;18.26;90.84
9141;BME280;46330;50.822;7.126;2023-07-31T06:36:01;100393.25;;;18.22;92.09
9141;BME280;46330;50.822;7.126;2023-07-31T06:38:29;100394.28;;;18.19;94.42
9141;BME280;46330;50.822;7.126;2023-07-31T06:40:57;100391.47;;;18.22;95.45
9141;BME280;46330;50.822;7.126;2023-07-31T06:43:24;100385.22;;;18.08;96.61
9141;BME280;46330;50.822;7.126;2023-07-31T06:45:55;100384.53;;;18.20;97.42
9141;BME280;46330;50.822;7.126;2023-07-31T06:48:23;100383.34;;;18.25;98.41
9141;BME280;46330;50.822;7.126;2023-07-31T06:50:51;100377.88;;;18.28;97.13
9141;BME280;46330;50.822;7.126;2023-07-31T06:53:20;100382.09;;;18.33;97.78
9141;BME280;46330;50.822;7.126;2023-07-31T06:55:48;100381.16;;;18.34;98.62
9141;BME280;46330;50.822;7.126;2023-07-31T06:58:18;100386.00;;;18.41;99.20
9141;BME280;46330;50.822;7.126;2023-07-31T07:00:46;100380.81;;;18.40;98.55
9141;BME280;46330;50.822;7.126;2023-07-31T07:03:17;100378.75;;;18.45;98.85
9141;BME280;46330;50.822;7.126;2023-07-31T07:05:45;100371.72;;;18.44;98.48
9141;BME280;46330;50.822;7.126;2023-07-31T07:08:13;100369.03;;;18.61;98.71
9141;BME280;46330;50.822;7.126;2023-07-31T07:10:43;100369.19;;;18.73;97.61
9141;BME280;46330;50.822;7.126;2023-07-31T07:13:10;100370.31;;;19.45;95.96
9141;BME280;46330;50.822;7.126;2023-07-31T07:15:39;100370.13;;;19.62;92.83
9141;BME280;46330;50.822;7.126;2023-07-31T07:18:07;100367.97;;;19.68;91.36
9141;BME280;46330;50.822;7.126;2023-07-31T07:20:37;100356.50;;;19.96;90.30
9141;BME280;46330;50.822;7.126;2023-07-31T07:23:05;100352.06;;;20.11;88.00
9141;BME280;46330;50.822;7.126;2023-07-31T07:25:32;100350.91;;;20.01;88.97
9141;BME280;46330;50.822;7.126;2023-07-31T07:28:02;100357.06;;;20.15;88.04
9141;BME280;46330;50.822;7.126;2023-07-31T07:30:29;100350.81;;;19.88;88.10
9141;BME280;46330;50.822;7.126;2023-07-31T07:32:57;100355.47;;;19.99;88.30
9141;BME280;46330;50.822;7.126;2023-07-31T07:35:25;100351.84;;;19.57;90.05
9141;BME280;46330;50.822;7.126;2023-07-31T07:37:53;100356.97;;;19.30;90.83
9141;BME280;46330;50.822;7.126;2023-07-31T07:40:21;100349.44;;;19.09;92.63
9141;BME280;46330;50.822;7.126;2023-07-31T07:42:49;100352.16;;;19.23;94.62
9141;BME280;46330;50.822;7.126;2023-07-31T07:45:19;100362.22;;;19.32;96.58
9141;BME280;46330;50.822;7.126;2023-07-31T07:47:46;100370.72;;;19.23;96.63
9141;BME280;46330;50.822;7.126;2023-07-31T07:50:15;100362.81;;;19.07;97.88
9141;BME280;46330;50.822;7.126;2023-07-31T07:52:43;100359.47;;;19.04;97.31
9141;BME280;46330;50.822;7.126;2023-07-31T07:55:10;100355.75;;;18.92;99.00
9141;BME280;46330;50.822;7.126;2023-07-31T07:57:38;100353.28;;;18.89;98.58
9141;BME280;46330;50.822;7.126;2023-07-31T08:00:07;100354.16;;;18.74;98.55
9141;BME280;46330;50.822;7.126;2023-07-31T08:02:41;100360.53;;;18.86;100.00
9141;BME280;46330;50.822;7.126;2023-07-31T08:05:09;100365.94;;;18.68;100.00
9141;BME280;46330;50.822;7.126;2023-07-31T08:07:36;100368.34;;;18.73;100.00
9141;BME280;46330;50.822;7.126;2023-07-31T08:10:05;100367.25;;;18.77;100.00
9141;BME280;46330;50.822;7.126;2023-07-31T08:12:33;100371.56;;;18.78;100.00
9141;BME280;46330;50.822;7.126;2023-07-31T08:15:01;100357.81;;;18.71;99.86
9141;BME280;46330;50.822;7.126;2023-07-31T08:17:29;100370.47;;;18.82;100.00
9141;BME280;46330;50.822;7.126;2023-07-31T08:19:58;100358.81;;;18.85;100.00
9141;BME280;46330;50.822;7.126;2023-07-31T08:22:26;100367.69;;;18.99;100.00
9141;BME280;46330;50.822;7.126;2023-07-31T08:24:54;100356.31;;;18.97;99.45
9141;BME280;46330;50.822;7.126;2023-07-31T08:27:21;100353.97;;;18.93;99.63
9141;BME280;46330;50.822;7.126;2023-07-31T08:29:49;100352.66;;;18.84;98.04
9141;BME280;46330;50.822;7.126;2023-07-31T08:32:19;100347.31;;;18.70;97.20
9141;BME280;46330;50.822;7.126;2023-07-31T08:34:47;100342.59;;;18.75;97.84
9141;BME280;46330;50.822;7.126;2023-07-31T08:37:17;100342.50;;;18.92;98.36
9141;BME280;46330;50.822;7.126;2023-07-31T08:39:44;100339.34;;;18.86;98.23
9141;BME280;46330;50.822;7.126;2023-07-31T08:42:12;100329.06;;;18.95;99.11
9141;BME280;46330;50.822;7.126;2023-07-31T08:44:41;100329.88;;;19.11;98.68
9141;BME280;46330;50.822;7.126;2023-07-31T08:47:10;100322.47;;;19.02;98.38
9141;BME280;46330;50.822;7.126;2023-07-31T08:49:38;100324.75;;;19.08;98.68
9141;BME280;46330;50.822;7.126;2023-07-31T08:52:07;100315.75;;;18.81;99.19
9141;BME280;46330;50.822;7.126;2023-07-31T08:54:36;100320.66;;;18.73;99.96
9141;BME280;46330;50.822;7.126;2023-07-31T08:57:05;100312.13;;;18.68;100.00
9141;BME280;46330;50.822;7.126;2023-07-31T08:59:35;100313.63;;;18.72;100.00
9141;BME280;46330;50.822;7.126;2023-07-31T09:02:06;100310.66;;;18.62;100.00
9141;BME280;46330;50.822;7.126;2023-07-31T09:04:35;100318.03;;;18.57;100.00
9141;BME280;46330;50.822;7.126;2023-07-31T09:07:03;100315.94;;;18.62;100.00
9141;BME280;46330;50.822;7.126;2023-07-31T09:09:32;100320.06;;;18.68;100.00
9141;BME280;46330;50.822;7.126;2023-07-31T09:12:02;100324.25;;;19.02;100.00
9141;BME280;46330;50.822;7.126;2023-07-31T09:14:31;100324.88;;;19.21;100.00
9141;BME280;46330;50.822;7.126;2023-07-31T09:17:00;100332.41;;;19.13;98.11
9141;BME280;46330;50.822;7.126;2023-07-31T09:19:32;100337.72;;;19.13;96.59
9141;BME280;46330;50.822;7.126;2023-07-31T09:22:00;100335.19;;;19.11;96.16
9141;BME280;46330;50.822;7.126;2023-07-31T09:24:30;100331.91;;;19.06;99.45
9141;BME280;46330;50.822;7.126;2023-07-31T09:26:59;100334.03;;;19.15;98.01
9141;BME280;46330;50.822;7.126;2023-07-31T09:29:29;100330.75;;;18.96;98.51
9141;BME280;46330;50.822;7.126;2023-07-31T09:31:57;100323.28;;;18.73;100.00
9141;BME280;46330;50.822;7.126;2023-07-31T09:34:30;100313.72;;;18.70;100.00
9141;BME280;46330;50.822;7.126;2023-07-31T09:37:01;100324.59;;;18.66;100.00
9141;BME280;46330;50.822;7.126;2023-07-31T09:39:29;100304.94;;;18.54;100.00
9141;BME280;46330;50.822;7.126;2023-07-31T09:41:57;100306.06;;;18.50;100.00
9141;BME280;46330;50.822;7.126;2023-07-31T09:44:47;100298.44;;;18.44;100.00
9141;BME280;46330;50.822;7.126;2023-07-31T09:47:21;100294.00;;;18.45;100.00
9141;BME280;46330;50.822;7.126;2023-07-31T09:49:52;100298.25;;;18.63;100.00
9141;BME280;46330;50.822;7.126;2023-07-31T09:52:20;100294.41;;;18.68;100.00
9141;BME280;46330;50.822;7.126;2023-07-31T09:54:48;100298.78;;;18.54;100.00
9141;BME280;46330;50.822;7.126;2023-07-31T09:57:16;100286.63;;;18.65;100.00
9141;BME280;46330;50.822;7.126;2023-07-31T09:59:48;100278.94;;;18.76;100.00
9141;BME280;46330;50.822;7.126;2023-07-31T10:02:21;100277.75;;;18.66;100.00
9141;BME280;46330;50.822;7.126;2023-07-31T10:04:50;100283.38;;;18.76;100.00
9141;BME280;46330;50.822;7.126;2023-07-31T10:07:19;100275.34;;;18.62;100.00
9141;BME280;46330;50.822;7.126;2023-07-31T10:09:48;100276.47;;;18.73;100.00
9141;BME280;46330;50.822;7.126;2023-07-31T10:12:19;100271.53;;;18.67;100.00
9141;BME280;46330;50.822;7.126;2023-07-31T10:14:50;100271.91;;;18.75;100.00
9141;BME280;46330;50.822;7.126;2023-07-31T10:17:21;100269.75;;;18.82;100.00
9141;BME280;46330;50.822;7.126;2023-07-31T10:19:49;100263.22;;;18.88;100.00
9141;BME280;46330;50.822;7.126;2023-07-31T10:22:21;100259.72;;;18.87;100.00
9141;BME280;46330;50.822;7.126;2023-07-31T10:24:50;100267.78;;;18.86;100.00
9141;BME280;46330;50.822;7.126;2023-07-31T10:27:17;100263.28;;;19.02;100.00
9141;BME280;46330;50.822;7.126;2023-07-31T10:29:48;100255.03;;;18.92;100.00
9141;BME280;46330;50.822;7.126;2023-07-31T10:32:17;100260.75;;;18.85;100.00
9141;BME280;46330;50.822;7.126;2023-07-31T10:34:45;100253.09;;;18.80;100.00
9141;BME280;46330;50.822;7.126;2023-07-31T10:37:24;100249.34;;;18.98;100.00
9141;BME280;46330;50.822;7.126;2023-07-31T10:39:57;100249.25;;;19.00;100.00
9141;BME280;46330;50.822;7.126;2023-07-31T10:42:33;100252.91;;;19.27;100.00
9141;BME280;46330;50.822;7.126;2023-07-31T10:45:04;100251.94;;;19.28;98.06
9141;BME280;46330;50.822;7.126;2023-07-31T10:47:37;100251.69;;;19.61;99.74
9141;BME280;46330;50.822;7.126;2023-07-31T10:50:17;100246.56;;;19.72;91.83
9141;BME280;46330;50.822;7.126;2023-07-31T10:52:47;100250.53;;;19.79;87.28
9141;BME280;46330;50.822;7.126;2023-07-31T10:55:24;100249.47;;;19.96;87.06
9141;BME280;46330;50.822;7.126;2023-07-31T10:57:52;100259.31;;;19.94;86.43
9141;BME280;46330;50.822;7.126;2023-07-31T11:00:25;100260.63;;;20.01;86.01
9141;BME280;46330;50.822;7.126;2023-07-31T11:03:01;100256.19;;;19.87;83.20
9141;BME280;46330;50.822;7.126;2023-07-31T11:05:45;100255.06;;;19.91;82.57
9141;BME280;46330;50.822;7.126;2023-07-31T11:08:15;100262.09;;;19.92;82.82
9141;BME280;46330;50.822;7.126;2023-07-31T11:10:44;100263.69;;;19.80;81.79
9141;BME280;46330;50.822;7.126;2023-07-31T11:13:12;100269.38;;;19.89;81.27
9141;BME280;46330;50.822;7.126;2023-07-31T11:15:41;100262.16;;;19.91;82.11
9141;BME280;46330;50.822;7.126;2023-07-31T11:18:09;100269.59;;;19.85;81.10
9141;BME280;46330;50.822;7.126;2023-07-31T11:20:38;100266.06;;;19.85;80.28
9141;BME280;46330;50.822;7.126;2023-07-31T11:23:08;100275.28;;;19.79;81.62
9141;BME280;46330;50.822;7.126;2023-07-31T11:25:37;100259.13;;;19.97;84.43
9141;BME280;46330;50.822;7.126;2023-07-31T11:28:08;100270.72;;;19.81;85.06
9141;BME280;46330;50.822;7.126;2023-07-31T11:30:36;100280.97;;;19.73;85.15
9141;BME280;46330;50.822;7.126;2023-07-31T11:33:07;100282.09;;;19.69;86.77
9141;BME280;46330;50.822;7.126;2023-07-31T11:35:36;100286.19;;;19.61;90.77
9141;BME280;46330;50.822;7.126;2023-07-31T11:38:08;100274.72;;;19.60;89.15
9141;BME280;46330;50.822;7.126;2023-07-31T11:40:41;100263.53;;;19.69;86.79
9141;BME280;46330;50.822;7.126;2023-07-31T11:43:09;100260.59;;;19.60;86.22
9141;BME280;46330;50.822;7.126;2023-07-31T11:45:39;100262.13;;;19.64;86.49
9141;BME280;46330;50.822;7.126;2023-07-31T11:48:09;100268.41;;;19.90;87.49
9141;BME280;46330;50.822;7.126;2023-07-31T11:50:37;100265.63;;;20.05;86.61
9141;BME280;46330;50.822;7.126;2023-07-31T11:53:07;100252.00;;;20.38;85.48
9141;BME280;46330;50.822;7.126;2023-07-31T11:55:37;100248.91;;;20.71;83.94
9141;BME280;46330;50.822;7.126;2023-07-31T11:58:04;100238.03;;;21.51;81.10
9141;BME280;46330;50.822;7.126;2023-07-31T12:00:33;100240.28;;;22.30;78.15
9141;BME280;46330;50.822;7.126;2023-07-31T12:03:01;100238.53;;;22.18;76.11
9141;BME280;46330;50.822;7.126;2023-07-31T12:05:30;100230.00;;;22.36;75.05
9141;BME280;46330;50.822;7.126;2023-07-31T12:08:00;100231.03;;;22.46;73.04
9141;BME280;46330;50.822;7.126;2023-07-31T12:10:29;100215.53;;;22.51;72.95
9141;BME280;46330;50.822;7.126;2023-07-31T12:13:03;100216.53;;;22.85;71.48
9141;BME280;46330;50.822;7.126;2023-07-31T12:15:36;100218.72;;;22.57;72.36
9141;BME280;46330;50.822;7.126;2023-07-31T12:18:05;100215.91;;;22.00;74.82
9141;BME280;46330;50.822;7.126;2023-07-31T12:20:35;100222.97;;;22.12;76.43
9141;BME280;46330;50.822;7.126;2023-07-31T12:23:13;100218.78;;;21.48;77.05
9141;BME280;46330;50.822;7.126;2023-07-31T12:25:41;100212.13;;;21.66;80.26
9141;BME280;46330;50.822;7.126;2023-07-31T12:28:09;100211.31;;;21.27;74.98
9141;BME280;46330;50.822;7.126;2023-07-31T12:30:40;100221.34;;;21.24;76.44
9141;BME280;46330;50.822;7.126;2023-07-31T12:33:13;100231.53;;;21.30;77.21
9141;BME280;46330;50.822;7.126;2023-07-31T12:35:44;100223.03;;;21.12;76.03
9141;BME280;46330;50.822;7.126;2023-07-31T12:38:13;100220.78;;;20.93;76.20
9141;BME280;46330;50.822;7.126;2023-07-31T12:40:41;100213.72;;;20.80;76.87
9141;BME280;46330;50.822;7.126;2023-07-31T12:43:09;100218.44;;;20.89;77.20
9141;BME280;46330;50.822;7.126;2023-07-31T12:45:37;100222.34;;;20.96;78.41
9141;BME280;46330;50.822;7.126;2023-07-31T12:48:05;100221.91;;;20.77;77.60
9141;BME280;46330;50.822;7.126;2023-07-31T12:50:33;100213.09;;;20.76;77.46
9141;BME280;46330;50.822;7.126;2023-07-31T12:53:05;100218.75;;;20.84;77.66
9141;BME280;46330;50.822;7.126;2023-07-31T12:55:33;100213.09;;;20.76;76.66
9141;BME280;46330;50.822;7.126;2023-07-31T12:58:03;100210.75;;;20.84;77.06
9141;BME280;46330;50.822;7.126;2023-07-31T13:00:31;100204.16;;;20.90;76.86
9141;BME280;46330;50.822;7.126;2023-07-31T13:02:59;100211.88;;;21.20;76.80
9141;BME280;46330;50.822;7.126;2023-07-31T13:05:28;100206.00;;;21.27;76.67
9141;BME280;46330;50.822;7.126;2023-07-31T13:07:56;100204.00;;;21.18;76.06